Sinjar, Iraq

11:59 PM AST on August 30, 2015 (GMT +0300)
Tal Afar | | Change Station
CLOSE
Current Station
Airport
Location: Tal Afar,
Elevation: 984 ft
Nearby Weather Stations

Elev 984 ft 36.28 °N, 42.40 °E | Updated 4 minutes ago

Partly Cloudy
Partly Cloudy
104 °F
Feels Like 104 °F
N
7
Wind Variable Wind from ESE

Today
High -- | Low -- °F
--% Chance of Precip.
Yesterday
High -- | Low -- °F
Precip. -- in
5:42 AM 6:44 PM
Full, 98% visible
Pressure 29.60 in
Visibility 6.2 miles
Clouds Few 15000 ft
Few 20000 ft
Dew Point 44 °F
Humidity 13%
Rainfall 0.00 in
Snow Depth Not available.
UV 0 out of 12
Pollen Not available.
Air Quality Not available.
Flu Activity Not available.
METAR KQTI 302055Z 11006KT 9999 FEW150 FEW200 40/07 A2961 RMK AO2A SLP021 T03970065 57015 $
Pressure 29.60 in
Visibility 6.2 miles
Clouds Few 15000 ft
Few 20000 ft
Dew Point 44 °F
Humidity 13%
Rainfall 0.00 in
Snow Depth Not available.
UV 0 out of 12
Pollen Not available.
Air Quality Not available.
Flu Activity Not available.
METAR KQTI 302055Z 11006KT 9999 FEW150 FEW200 40/07 A2961 RMK AO2A SLP021 T03970065 57015 $

10-Day Weather Forecast

×

Almanac

Astronomy

Aug. 30, 2015 Rise Set
Actual Time
Civil Twilight
Nautical Twilight
Astronomical Twilight
Moon
Length of Visible Light
Length of Day
Tomorrow will be .
, % of the Moon is Illuminated

Today's Extremes

Country Highs Country Lows

Community

WunderPhotos

Upload Photos

1,851,057 photos uploaded!

WunderBlogs® & News

Nearby

Air Quality

  Air Quality AQ Index Pollutant
Not available.

Snow Depth

Station Depth Elevation

Earthquake Activity

City Distance Mag. Time & Date
Minimum magnitude displayed is 2.5.

Coastal Water Temperatures

Place Temperature

Stations

Nearby Weather Stations

Station Location Temp. Windchill Dew Point Humidity Wind Precip. Elev Updated Type